sensor_id;sensor_type;location;lat;lon;timestamp;temperature;humidity
27567;DHT22;15006;48.584;9.186;2023-06-14T00:02:10;10.50;52.60
27567;DHT22;15006;48.584;9.186;2023-06-14T00:04:36;10.50;52.50
27567;DHT22;15006;48.584;9.186;2023-06-14T00:07:05;10.40;52.60
27567;DHT22;15006;48.584;9.186;2023-06-14T00:09:34;10.40;52.80
27567;DHT22;15006;48.584;9.186;2023-06-14T00:12:01;10.40;52.80
27567;DHT22;15006;48.584;9.186;2023-06-14T00:14:28;10.30;52.80
27567;DHT22;15006;48.584;9.186;2023-06-14T00:16:55;10.30;52.80
27567;DHT22;15006;48.584;9.186;2023-06-14T00:19:25;10.30;52.80
27567;DHT22;15006;48.584;9.186;2023-06-14T00:21:51;10.20;53.20
27567;DHT22;15006;48.584;9.186;2023-06-14T00:24:20;10.20;53.30
27567;DHT22;15006;48.584;9.186;2023-06-14T00:26:47;10.20;53.30
27567;DHT22;15006;48.584;9.186;2023-06-14T00:29:15;10.20;53.30
27567;DHT22;15006;48.584;9.186;2023-06-14T00:31:41;10.20;53.40
27567;DHT22;15006;48.584;9.186;2023-06-14T00:34:07;10.10;53.20
27567;DHT22;15006;48.584;9.186;2023-06-14T00:36:35;10.10;53.20
27567;DHT22;15006;48.584;9.186;2023-06-14T00:39:01;10.10;53.40
27567;DHT22;15006;48.584;9.186;2023-06-14T00:41:29;10.00;53.20
27567;DHT22;15006;48.584;9.186;2023-06-14T00:43:56;10.00;53.20
27567;DHT22;15006;48.584;9.186;2023-06-14T00:46:22;9.90;53.40
27567;DHT22;15006;48.584;9.186;2023-06-14T00:48:48;9.90;53.70
27567;DHT22;15006;48.584;9.186;2023-06-14T00:51:15;9.90;53.90
27567;DHT22;15006;48.584;9.186;2023-06-14T00:53:41;9.80;53.90
27567;DHT22;15006;48.584;9.186;2023-06-14T00:56:13;9.80;53.70
27567;DHT22;15006;48.584;9.186;2023-06-14T00:58:41;9.80;53.30
27567;DHT22;15006;48.584;9.186;2023-06-14T01:01:07;9.80;53.50
27567;DHT22;15006;48.584;9.186;2023-06-14T01:03:52;9.70;53.90
27567;DHT22;15006;48.584;9.186;2023-06-14T01:06:49;9.70;53.90
27567;DHT22;15006;48.584;9.186;2023-06-14T01:12:07;9.60;54.60
27567;DHT22;15006;48.584;9.186;2023-06-14T01:14:41;9.60;54.90
27567;DHT22;15006;48.584;9.186;2023-06-14T01:17:08;9.60;55.10
27567;DHT22;15006;48.584;9.186;2023-06-14T01:19:43;9.60;54.90
27567;DHT22;15006;48.584;9.186;2023-06-14T01:22:10;9.50;54.80
27567;DHT22;15006;48.584;9.186;2023-06-14T01:24:37;9.50;54.90
27567;DHT22;15006;48.584;9.186;2023-06-14T01:27:05;9.60;55.10
27567;DHT22;15006;48.584;9.186;2023-06-14T01:29:33;9.50;55.20
27567;DHT22;15006;48.584;9.186;2023-06-14T01:32:00;9.50;55.30
27567;DHT22;15006;48.584;9.186;2023-06-14T01:34:26;9.50;55.20
27567;DHT22;15006;48.584;9.186;2023-06-14T01:36:53;9.50;55.40
27567;DHT22;15006;48.584;9.186;2023-06-14T01:39:22;9.50;55.50
27567;DHT22;15006;48.584;9.186;2023-06-14T01:41:49;9.40;55.10
27567;DHT22;15006;48.584;9.186;2023-06-14T01:44:17;9.40;54.30
27567;DHT22;15006;48.584;9.186;2023-06-14T01:46:45;9.40;54.30
27567;DHT22;15006;48.584;9.186;2023-06-14T01:49:11;9.30;54.60
27567;DHT22;15006;48.584;9.186;2023-06-14T01:51:37;9.20;54.50
27567;DHT22;15006;48.584;9.186;2023-06-14T01:54:03;9.20;54.90
27567;DHT22;15006;48.584;9.186;2023-06-14T01:56:29;9.10;55.20
27567;DHT22;15006;48.584;9.186;2023-06-14T01:58:55;9.00;55.50
27567;DHT22;15006;48.584;9.186;2023-06-14T02:01:22;8.90;55.90
27567;DHT22;15006;48.584;9.186;2023-06-14T02:03:48;8.90;56.10
27567;DHT22;15006;48.584;9.186;2023-06-14T02:06:15;8.80;56.20
27567;DHT22;15006;48.584;9.186;2023-06-14T02:08:43;8.80;56.30
27567;DHT22;15006;48.584;9.186;2023-06-14T02:11:10;8.80;56.60
27567;DHT22;15006;48.584;9.186;2023-06-14T02:13:36;8.80;56.80
27567;DHT22;15006;48.584;9.186;2023-06-14T02:16:02;8.70;56.90
27567;DHT22;15006;48.584;9.186;2023-06-14T02:18:28;8.70;57.20
27567;DHT22;15006;48.584;9.186;2023-06-14T02:20:55;8.60;57.40
27567;DHT22;15006;48.584;9.186;2023-06-14T02:23:21;8.60;58.00
27567;DHT22;15006;48.584;9.186;2023-06-14T02:25:47;8.60;57.40
27567;DHT22;15006;48.584;9.186;2023-06-14T02:28:13;8.60;57.60
27567;DHT22;15006;48.584;9.186;2023-06-14T02:30:39;8.60;57.80
27567;DHT22;15006;48.584;9.186;2023-06-14T02:33:06;8.70;58.00
27567;DHT22;15006;48.584;9.186;2023-06-14T02:35:32;8.60;58.00
27567;DHT22;15006;48.584;9.186;2023-06-14T02:37:58;8.60;58.20
27567;DHT22;15006;48.584;9.186;2023-06-14T02:40:24;8.60;58.10
27567;DHT22;15006;48.584;9.186;2023-06-14T02:42:50;8.60;58.10
27567;DHT22;15006;48.584;9.186;2023-06-14T02:45:17;8.60;58.30
27567;DHT22;15006;48.584;9.186;2023-06-14T02:47:43;8.50;58.00
27567;DHT22;15006;48.584;9.186;2023-06-14T02:50:09;8.50;58.00
27567;DHT22;15006;48.584;9.186;2023-06-14T02:52:35;8.50;58.60
27567;DHT22;15006;48.584;9.186;2023-06-14T02:55:01;8.50;58.00
27567;DHT22;15006;48.584;9.186;2023-06-14T02:57:29;8.40;57.50
27567;DHT22;15006;48.584;9.186;2023-06-14T02:59:55;8.30;57.70
27567;DHT22;15006;48.584;9.186;2023-06-14T03:02:21;8.30;57.80
27567;DHT22;15006;48.584;9.186;2023-06-14T03:04:47;8.20;57.80
27567;DHT22;15006;48.584;9.186;2023-06-14T03:07:13;8.20;58.00
27567;DHT22;15006;48.584;9.186;2023-06-14T03:09:39;8.10;58.00
27567;DHT22;15006;48.584;9.186;2023-06-14T03:12:06;8.10;58.30
27567;DHT22;15006;48.584;9.186;2023-06-14T03:14:32;8.00;58.50
27567;DHT22;15006;48.584;9.186;2023-06-14T03:16:59;8.00;58.30
27567;DHT22;15006;48.584;9.186;2023-06-14T03:19:26;7.90;58.30
27567;DHT22;15006;48.584;9.186;2023-06-14T03:21:52;7.80;58.60
27567;DHT22;15006;48.584;9.186;2023-06-14T03:24:19;7.80;59.10
27567;DHT22;15006;48.584;9.186;2023-06-14T03:26:45;7.70;59.10
27567;DHT22;15006;48.584;9.186;2023-06-14T03:29:11;7.70;59.30
27567;DHT22;15006;48.584;9.186;2023-06-14T03:31:58;7.60;59.30
27567;DHT22;15006;48.584;9.186;2023-06-14T03:34:26;7.60;60.40
27567;DHT22;15006;48.584;9.186;2023-06-14T03:36:53;7.60;59.70
27567;DHT22;15006;48.584;9.186;2023-06-14T03:39:19;7.60;59.90
27567;DHT22;15006;48.584;9.186;2023-06-14T03:41:46;7.60;60.20
27567;DHT22;15006;48.584;9.186;2023-06-14T03:44:15;7.60;60.60
27567;DHT22;15006;48.584;9.186;2023-06-14T03:46:43;7.60;60.50
27567;DHT22;15006;48.584;9.186;2023-06-14T03:49:09;7.60;60.10
27567;DHT22;15006;48.584;9.186;2023-06-14T03:51:36;7.60;60.50
27567;DHT22;15006;48.584;9.186;2023-06-14T03:54:02;7.60;60.90
27567;DHT22;15006;48.584;9.186;2023-06-14T03:56:28;7.60;61.00
27567;DHT22;15006;48.584;9.186;2023-06-14T03:58:55;7.60;61.30
27567;DHT22;15006;48.584;9.186;2023-06-14T04:01:21;7.60;61.60
27567;DHT22;15006;48.584;9.186;2023-06-14T04:03:53;7.60;61.80
27567;DHT22;15006;48.584;9.186;2023-06-14T04:06:19;7.60;62.00
27567;DHT22;15006;48.584;9.186;2023-06-14T04:08:46;7.70;62.40
27567;DHT22;15006;48.584;9.186;2023-06-14T04:11:12;7.70;62.60
27567;DHT22;15006;48.584;9.186;2023-06-14T04:13:38;7.70;62.60
27567;DHT22;15006;48.584;9.186;2023-06-14T04:16:05;7.80;62.50
27567;DHT22;15006;48.584;9.186;2023-06-14T04:18:31;7.80;62.80
27567;DHT22;15006;48.584;9.186;2023-06-14T04:20:57;7.90;62.90
27567;DHT22;15006;48.584;9.186;2023-06-14T04:23:23;7.90;63.40
27567;DHT22;15006;48.584;9.186;2023-06-14T04:25:49;8.00;63.50
27567;DHT22;15006;48.584;9.186;2023-06-14T04:28:15;8.10;63.70
27567;DHT22;15006;48.584;9.186;2023-06-14T04:30:43;8.20;63.60
27567;DHT22;15006;48.584;9.186;2023-06-14T04:33:10;8.30;63.50
27567;DHT22;15006;48.584;9.186;2023-06-14T04:35:37;8.40;63.60
27567;DHT22;15006;48.584;9.186;2023-06-14T04:38:04;8.50;63.70
27567;DHT22;15006;48.584;9.186;2023-06-14T04:40:32;8.60;63.80
27567;DHT22;15006;48.584;9.186;2023-06-14T04:42:59;8.70;63.80
27567;DHT22;15006;48.584;9.186;2023-06-14T04:45:25;8.80;63.60
27567;DHT22;15006;48.584;9.186;2023-06-14T04:47:59;8.90;63.30
27567;DHT22;15006;48.584;9.186;2023-06-14T04:50:25;9.00;63.30
27567;DHT22;15006;48.584;9.186;2023-06-14T04:52:52;9.20;63.20
27567;DHT22;15006;48.584;9.186;2023-06-14T04:55:19;9.30;63.20
27567;DHT22;15006;48.584;9.186;2023-06-14T04:57:46;9.40;63.20
27567;DHT22;15006;48.584;9.186;2023-06-14T05:00:12;9.50;62.80
27567;DHT22;15006;48.584;9.186;2023-06-14T05:02:39;9.70;63.00
27567;DHT22;15006;48.584;9.186;2023-06-14T05:05:06;9.80;63.00
27567;DHT22;15006;48.584;9.186;2023-06-14T05:07:32;10.00;63.20
27567;DHT22;15006;48.584;9.186;2023-06-14T05:09:59;10.20;63.20
27567;DHT22;15006;48.584;9.186;2023-06-14T05:12:26;10.30;63.00
27567;DHT22;15006;48.584;9.186;2023-06-14T05:14:52;10.50;62.80
27567;DHT22;15006;48.584;9.186;2023-06-14T05:17:18;10.70;62.90
27567;DHT22;15006;48.584;9.186;2023-06-14T05:19:46;10.80;62.90
27567;DHT22;15006;48.584;9.186;2023-06-14T05:22:12;11.00;62.60
27567;DHT22;15006;48.584;9.186;2023-06-14T05:24:38;11.10;62.20
27567;DHT22;15006;48.584;9.186;2023-06-14T05:27:04;11.30;61.60
27567;DHT22;15006;48.584;9.186;2023-06-14T05:29:31;11.40;61.20
27567;DHT22;15006;48.584;9.186;2023-06-14T05:31:57;11.60;60.80
27567;DHT22;15006;48.584;9.186;2023-06-14T05:34:23;11.70;60.20
27567;DHT22;15006;48.584;9.186;2023-06-14T05:36:49;11.90;59.30
27567;DHT22;15006;48.584;9.186;2023-06-14T05:39:14;12.10;59.00
27567;DHT22;15006;48.584;9.186;2023-06-14T05:41:40;12.20;58.30
27567;DHT22;15006;48.584;9.186;2023-06-14T05:44:06;12.40;57.40
27567;DHT22;15006;48.584;9.186;2023-06-14T05:46:33;12.50;56.70
27567;DHT22;15006;48.584;9.186;2023-06-14T05:48:59;12.70;56.00
27567;DHT22;15006;48.584;9.186;2023-06-14T05:51:25;12.80;55.60
27567;DHT22;15006;48.584;9.186;2023-06-14T05:53:52;13.00;55.30
27567;DHT22;15006;48.584;9.186;2023-06-14T05:56:18;13.10;54.90
27567;DHT22;15006;48.584;9.186;2023-06-14T05:58:45;13.20;54.90
27567;DHT22;15006;48.584;9.186;2023-06-14T06:01:11;13.40;54.80
27567;DHT22;15006;48.584;9.186;2023-06-14T06:03:39;13.50;54.40
27567;DHT22;15006;48.584;9.186;2023-06-14T06:06:05;13.70;53.90
27567;DHT22;15006;48.584;9.186;2023-06-14T06:08:31;13.80;53.80
27567;DHT22;15006;48.584;9.186;2023-06-14T06:10:58;14.00;54.00
27567;DHT22;15006;48.584;9.186;2023-06-14T06:13:24;14.10;53.60
27567;DHT22;15006;48.584;9.186;2023-06-14T06:15:50;14.30;53.20
27567;DHT22;15006;48.584;9.186;2023-06-14T06:18:16;14.40;52.90
27567;DHT22;15006;48.584;9.186;2023-06-14T06:20:42;14.50;53.00
27567;DHT22;15006;48.584;9.186;2023-06-14T06:23:09;14.70;52.70
27567;DHT22;15006;48.584;9.186;2023-06-14T06:25:35;14.80;52.40
27567;DHT22;15006;48.584;9.186;2023-06-14T06:28:01;15.00;52.50
27567;DHT22;15006;48.584;9.186;2023-06-14T06:30:28;15.10;52.30
27567;DHT22;15006;48.584;9.186;2023-06-14T06:32:54;15.30;51.70
27567;DHT22;15006;48.584;9.186;2023-06-14T06:35:21;15.40;51.40
27567;DHT22;15006;48.584;9.186;2023-06-14T06:37:47;15.60;51.10
27567;DHT22;15006;48.584;9.186;2023-06-14T06:40:13;15.70;50.60
27567;DHT22;15006;48.584;9.186;2023-06-14T06:42:39;15.80;51.10
27567;DHT22;15006;48.584;9.186;2023-06-14T06:45:06;15.90;50.20
27567;DHT22;15006;48.584;9.186;2023-06-14T06:47:33;16.10;50.80
27567;DHT22;15006;48.584;9.186;2023-06-14T06:49:59;16.20;51.30
27567;DHT22;15006;48.584;9.186;2023-06-14T06:52:25;16.40;50.50
27567;DHT22;15006;48.584;9.186;2023-06-14T06:54:51;16.60;50.40
27567;DHT22;15006;48.584;9.186;2023-06-14T06:57:20;16.70;49.80
27567;DHT22;15006;48.584;9.186;2023-06-14T06:59:49;17.00;49.50
27567;DHT22;15006;48.584;9.186;2023-06-14T07:02:22;17.20;48.90
27567;DHT22;15006;48.584;9.186;2023-06-14T07:04:48;17.30;47.80
27567;DHT22;15006;48.584;9.186;2023-06-14T07:07:14;17.50;48.20
27567;DHT22;15006;48.584;9.186;2023-06-14T07:09:40;17.70;47.50
27567;DHT22;15006;48.584;9.186;2023-06-14T07:12:07;17.80;47.10
27567;DHT22;15006;48.584;9.186;2023-06-14T07:14:33;18.00;46.20
27567;DHT22;15006;48.584;9.186;2023-06-14T07:16:59;18.30;46.10
27567;DHT22;15006;48.584;9.186;2023-06-14T07:19:25;18.40;45.80
27567;DHT22;15006;48.584;9.186;2023-06-14T07:21:51;18.60;45.40
27567;DHT22;15006;48.584;9.186;2023-06-14T07:24:18;18.80;45.20
27567;DHT22;15006;48.584;9.186;2023-06-14T07:26:47;18.90;44.80
27567;DHT22;15006;48.584;9.186;2023-06-14T07:29:14;19.10;44.60
27567;DHT22;15006;48.584;9.186;2023-06-14T07:31:40;19.30;44.20
27567;DHT22;15006;48.584;9.186;2023-06-14T07:34:06;19.50;43.80
27567;DHT22;15006;48.584;9.186;2023-06-14T07:36:32;19.70;43.80
27567;DHT22;15006;48.584;9.186;2023-06-14T07:38:59;19.90;43.40
27567;DHT22;15006;48.584;9.186;2023-06-14T07:41:25;20.10;43.50
27567;DHT22;15006;48.584;9.186;2023-06-14T07:43:51;20.40;43.30
27567;DHT22;15006;48.584;9.186;2023-06-14T07:46:17;20.60;42.70
27567;DHT22;15006;48.584;9.186;2023-06-14T07:48:43;20.80;42.40
27567;DHT22;15006;48.584;9.186;2023-06-14T07:51:09;21.10;41.40
27567;DHT22;15006;48.584;9.186;2023-06-14T07:53:36;21.30;41.00
27567;DHT22;15006;48.584;9.186;2023-06-14T07:56:02;21.50;40.30
27567;DHT22;15006;48.584;9.186;2023-06-14T07:58:28;21.60;40.10
27567;DHT22;15006;48.584;9.186;2023-06-14T08:00:54;21.90;38.80
27567;DHT22;15006;48.584;9.186;2023-06-14T08:03:20;22.10;38.10
27567;DHT22;15006;48.584;9.186;2023-06-14T08:05:48;22.20;37.60
27567;DHT22;15006;48.584;9.186;2023-06-14T08:08:14;22.40;36.60
27567;DHT22;15006;48.584;9.186;2023-06-14T08:10:41;22.60;36.50
27567;DHT22;15006;48.584;9.186;2023-06-14T08:13:07;22.70;35.90
27567;DHT22;15006;48.584;9.186;2023-06-14T08:15:35;22.80;36.00
27567;DHT22;15006;48.584;9.186;2023-06-14T08:18:01;23.00;35.50
27567;DHT22;15006;48.584;9.186;2023-06-14T08:20:28;23.20;36.10
27567;DHT22;15006;48.584;9.186;2023-06-14T08:22:55;23.30;35.20
27567;DHT22;15006;48.584;9.186;2023-06-14T08:25:22;23.50;35.50
27567;DHT22;15006;48.584;9.186;2023-06-14T08:27:49;23.80;35.00
27567;DHT22;15006;48.584;9.186;2023-06-14T08:30:16;24.00;34.50
27567;DHT22;15006;48.584;9.186;2023-06-14T08:32:43;24.20;33.70
27567;DHT22;15006;48.584;9.186;2023-06-14T08:35:09;24.30;33.40
27567;DHT22;15006;48.584;9.186;2023-06-14T08:37:41;24.50;33.20
27567;DHT22;15006;48.584;9.186;2023-06-14T08:40:20;24.60;32.80
27567;DHT22;15006;48.584;9.186;2023-06-14T08:42:51;24.80;34.40
27567;DHT22;15006;48.584;9.186;2023-06-14T08:45:18;24.90;32.90
27567;DHT22;15006;48.584;9.186;2023-06-14T08:47:46;25.10;34.20
27567;DHT22;15006;48.584;9.186;2023-06-14T08:50:21;25.20;32.80
27567;DHT22;15006;48.584;9.186;2023-06-14T08:52:54;25.30;32.00
27567;DHT22;15006;48.584;9.186;2023-06-14T08:55:23;25.40;32.30
27567;DHT22;15006;48.584;9.186;2023-06-14T08:57:57;25.50;32.10
27567;DHT22;15006;48.584;9.186;2023-06-14T09:00:26;25.70;32.00
27567;DHT22;15006;48.584;9.186;2023-06-14T09:02:53;25.80;31.60
27567;DHT22;15006;48.584;9.186;2023-06-14T09:05:24;26.00;31.80
27567;DHT22;15006;48.584;9.186;2023-06-14T09:07:51;26.20;32.10
27567;DHT22;15006;48.584;9.186;2023-06-14T09:10:18;26.40;31.30
27567;DHT22;15006;48.584;9.186;2023-06-14T09:12:46;26.60;30.70
27567;DHT22;15006;48.584;9.186;2023-06-14T09:15:13;26.70;30.00
27567;DHT22;15006;48.584;9.186;2023-06-14T09:17:40;26.80;29.90
27567;DHT22;15006;48.584;9.186;2023-06-14T09:20:08;26.90;29.70
27567;DHT22;15006;48.584;9.186;2023-06-14T09:22:37;27.00;29.40
27567;DHT22;15006;48.584;9.186;2023-06-14T09:25:03;27.00;29.90
27567;DHT22;15006;48.584;9.186;2023-06-14T09:27:30;27.00;30.00
27567;DHT22;15006;48.584;9.186;2023-06-14T09:29:58;27.10;29.60
27567;DHT22;15006;48.584;9.186;2023-06-14T09:32:25;27.20;29.50
27567;DHT22;15006;48.584;9.186;2023-06-14T09:34:51;27.30;29.10
27567;DHT22;15006;48.584;9.186;2023-06-14T09:37:30;27.40;29.40
27567;DHT22;15006;48.584;9.186;2023-06-14T09:39:57;27.60;28.50
27567;DHT22;15006;48.584;9.186;2023-06-14T09:42:24;27.70;28.60
27567;DHT22;15006;48.584;9.186;2023-06-14T09:44:55;27.70;28.10
27567;DHT22;15006;48.584;9.186;2023-06-14T09:47:22;27.80;28.00
27567;DHT22;15006;48.584;9.186;2023-06-14T09:49:50;28.00;27.90
27567;DHT22;15006;48.584;9.186;2023-06-14T09:52:19;28.00;27.40
27567;DHT22;15006;48.584;9.186;2023-06-14T09:54:47;28.10;26.70
27567;DHT22;15006;48.584;9.186;2023-06-14T09:57:25;28.10;26.80
27567;DHT22;15006;48.584;9.186;2023-06-14T09:59:57;28.20;26.30
27567;DHT22;15006;48.584;9.186;2023-06-14T10:02:34;28.20;26.30
27567;DHT22;15006;48.584;9.186;2023-06-14T10:05:07;28.30;26.60
27567;DHT22;15006;48.584;9.186;2023-06-14T10:08:17;28.40;26.40
27567;DHT22;15006;48.584;9.186;2023-06-14T10:10:39;28.50;26.40
27567;DHT22;15006;48.584;9.186;2023-06-14T10:13:06;28.60;27.20
27567;DHT22;15006;48.584;9.186;2023-06-14T10:15:43;28.70;26.90
27567;DHT22;15006;48.584;9.186;2023-06-14T10:21:13;28.90;26.00
27567;DHT22;15006;48.584;9.186;2023-06-14T10:23:50;29.10;26.60
27567;DHT22;15006;48.584;9.186;2023-06-14T10:26:23;29.10;26.30
27567;DHT22;15006;48.584;9.186;2023-06-14T10:29:07;29.20;25.40
27567;DHT22;15006;48.584;9.186;2023-06-14T10:39:30;29.30;25.30
27567;DHT22;15006;48.584;9.186;2023-06-14T10:41:58;29.40;24.70
27567;DHT22;15006;48.584;9.186;2023-06-14T10:46:58;29.10;25.10
27567;DHT22;15006;48.584;9.186;2023-06-14T10:49:45;28.80;24.70
27567;DHT22;15006;48.584;9.186;2023-06-14T10:52:13;28.70;26.20
27567;DHT22;15006;48.584;9.186;2023-06-14T10:57:45;28.20;25.20
27567;DHT22;15006;48.584;9.186;2023-06-14T11:00:15;28.10;25.60
27567;DHT22;15006;48.584;9.186;2023-06-14T11:03:22;28.00;25.30
27567;DHT22;15006;48.584;9.186;2023-06-14T11:05:58;27.90;25.70
27567;DHT22;15006;48.584;9.186;2023-06-14T11:11:38;27.70;25.50
27567;DHT22;15006;48.584;9.186;2023-06-14T11:14:07;27.70;25.70
27567;DHT22;15006;48.584;9.186;2023-06-14T11:16:33;27.90;26.30
27567;DHT22;15006;48.584;9.186;2023-06-14T11:19:01;28.00;26.50
27567;DHT22;15006;48.584;9.186;2023-06-14T11:21:28;28.20;25.80
27567;DHT22;15006;48.584;9.186;2023-06-14T11:23:57;28.20;25.20
27567;DHT22;15006;48.584;9.186;2023-06-14T11:26:27;28.20;25.00
27567;DHT22;15006;48.584;9.186;2023-06-14T11:28:58;28.20;25.70
27567;DHT22;15006;48.584;9.186;2023-06-14T11:31:26;28.20;26.60
27567;DHT22;15006;48.584;9.186;2023-06-14T11:33:57;28.40;25.90
27567;DHT22;15006;48.584;9.186;2023-06-14T11:36:27;28.60;26.10
27567;DHT22;15006;48.584;9.186;2023-06-14T11:39:05;28.80;25.70
27567;DHT22;15006;48.584;9.186;2023-06-14T11:41:41;29.00;25.20
27567;DHT22;15006;48.584;9.186;2023-06-14T11:44:08;29.20;25.40
27567;DHT22;15006;48.584;9.186;2023-06-14T11:46:35;29.30;25.30
27567;DHT22;15006;48.584;9.186;2023-06-14T11:49:02;29.40;25.80
27567;DHT22;15006;48.584;9.186;2023-06-14T11:51:34;29.60;25.50
27567;DHT22;15006;48.584;9.186;2023-06-14T11:54:01;29.80;24.90
27567;DHT22;15006;48.584;9.186;2023-06-14T11:56:29;30.00;25.30
27567;DHT22;15006;48.584;9.186;2023-06-14T11:58:58;30.20;24.70
27567;DHT22;15006;48.584;9.186;2023-06-14T12:01:25;30.40;24.00
27567;DHT22;15006;48.584;9.186;2023-06-14T12:03:53;30.70;24.60
27567;DHT22;15006;48.584;9.186;2023-06-14T12:06:27;30.90;23.80
27567;DHT22;15006;48.584;9.186;2023-06-14T12:08:58;31.00;23.10
27567;DHT22;15006;48.584;9.186;2023-06-14T12:11:31;30.90;23.20
27567;DHT22;15006;48.584;9.186;2023-06-14T12:13:59;30.60;22.90
27567;DHT22;15006;48.584;9.186;2023-06-14T12:16:31;30.40;23.50
27567;DHT22;15006;48.584;9.186;2023-06-14T12:19:01;30.30;23.70
27567;DHT22;15006;48.584;9.186;2023-06-14T12:21:37;30.30;24.00
27567;DHT22;15006;48.584;9.186;2023-06-14T12:24:07;30.40;23.80
27567;DHT22;15006;48.584;9.186;2023-06-14T12:26:33;30.70;24.20
27567;DHT22;15006;48.584;9.186;2023-06-14T12:28:59;30.90;24.10
27567;DHT22;15006;48.584;9.186;2023-06-14T12:31:25;31.10;24.00
27567;DHT22;15006;48.584;9.186;2023-06-14T12:33:52;31.30;23.80
27567;DHT22;15006;48.584;9.186;2023-06-14T12:36:19;31.40;24.40
27567;DHT22;15006;48.584;9.186;2023-06-14T12:38:45;31.60;24.00
27567;DHT22;15006;48.584;9.186;2023-06-14T12:41:11;31.70;24.40
27567;DHT22;15006;48.584;9.186;2023-06-14T12:43:39;31.90;23.90
27567;DHT22;15006;48.584;9.186;2023-06-14T12:46:05;32.20;23.90
27567;DHT22;15006;48.584;9.186;2023-06-14T12:48:31;32.40;23.60
27567;DHT22;15006;48.584;9.186;2023-06-14T12:50:57;32.60;23.40
27567;DHT22;15006;48.584;9.186;2023-06-14T12:53:24;32.80;22.80
27567;DHT22;15006;48.584;9.186;2023-06-14T12:55:52;32.90;22.70
27567;DHT22;15006;48.584;9.186;2023-06-14T12:58:19;32.80;22.50
27567;DHT22;15006;48.584;9.186;2023-06-14T13:00:46;32.70;22.70
27567;DHT22;15006;48.584;9.186;2023-06-14T13:03:12;32.70;22.30
27567;DHT22;15006;48.584;9.186;2023-06-14T13:05:39;32.70;22.50
27567;DHT22;15006;48.584;9.186;2023-06-14T13:08:07;32.70;22.90
27567;DHT22;15006;48.584;9.186;2023-06-14T13:10:36;32.70;22.90
27567;DHT22;15006;48.584;9.186;2023-06-14T13:13:03;32.70;23.00
27567;DHT22;15006;48.584;9.186;2023-06-14T13:15:29;32.70;22.70
27567;DHT22;15006;48.584;9.186;2023-06-14T13:17:55;32.70;23.20
27567;DHT22;15006;48.584;9.186;2023-06-14T13:20:21;32.70;23.10
27567;DHT22;15006;48.584;9.186;2023-06-14T13:22:47;32.70;23.00
27567;DHT22;15006;48.584;9.186;2023-06-14T13:25:13;32.90;23.00
27567;DHT22;15006;48.584;9.186;2023-06-14T13:27:39;33.00;22.70
27567;DHT22;15006;48.584;9.186;2023-06-14T13:30:06;33.10;22.20
27567;DHT22;15006;48.584;9.186;2023-06-14T13:32:32;33.30;22.30
27567;DHT22;15006;48.584;9.186;2023-06-14T13:34:58;33.50;22.00
27567;DHT22;15006;48.584;9.186;2023-06-14T13:37:24;33.50;21.90
27567;DHT22;15006;48.584;9.186;2023-06-14T13:39:50;33.60;21.80
27567;DHT22;15006;48.584;9.186;2023-06-14T13:42:16;33.60;21.80
27567;DHT22;15006;48.584;9.186;2023-06-14T13:44:43;33.80;22.50
27567;DHT22;15006;48.584;9.186;2023-06-14T13:47:09;33.80;22.00
27567;DHT22;15006;48.584;9.186;2023-06-14T13:49:35;33.90;21.70
27567;DHT22;15006;48.584;9.186;2023-06-14T13:52:02;33.90;21.60
27567;DHT22;15006;48.584;9.186;2023-06-14T13:54:29;33.80;21.60
27567;DHT22;15006;48.584;9.186;2023-06-14T13:56:55;33.60;21.50
27567;DHT22;15006;48.584;9.186;2023-06-14T13:59:22;33.30;21.30
27567;DHT22;15006;48.584;9.186;2023-06-14T14:01:48;32.90;21.20
27567;DHT22;15006;48.584;9.186;2023-06-14T14:04:14;32.40;21.10
27567;DHT22;15006;48.584;9.186;2023-06-14T14:06:41;31.90;21.10
27567;DHT22;15006;48.584;9.186;2023-06-14T14:09:08;31.30;21.80
27567;DHT22;15006;48.584;9.186;2023-06-14T14:11:38;30.80;22.00
27567;DHT22;15006;48.584;9.186;2023-06-14T14:14:05;30.30;22.60
27567;DHT22;15006;48.584;9.186;2023-06-14T14:16:31;29.80;22.80
27567;DHT22;15006;48.584;9.186;2023-06-14T14:18:58;29.40;23.40
27567;DHT22;15006;48.584;9.186;2023-06-14T14:21:24;29.20;24.10
27567;DHT22;15006;48.584;9.186;2023-06-14T14:23:50;29.20;24.80
27567;DHT22;15006;48.584;9.186;2023-06-14T14:26:16;29.30;24.50
27567;DHT22;15006;48.584;9.186;2023-06-14T14:28:42;29.40;24.70
27567;DHT22;15006;48.584;9.186;2023-06-14T14:31:08;29.70;24.10
27567;DHT22;15006;48.584;9.186;2023-06-14T14:33:35;29.90;24.70
27567;DHT22;15006;48.584;9.186;2023-06-14T14:36:00;30.20;24.70
27567;DHT22;15006;48.584;9.186;2023-06-14T14:38:29;30.50;24.40
27567;DHT22;15006;48.584;9.186;2023-06-14T14:40:55;30.80;23.70
27567;DHT22;15006;48.584;9.186;2023-06-14T14:43:21;31.10;23.50
27567;DHT22;15006;48.584;9.186;2023-06-14T14:45:48;31.30;23.40
27567;DHT22;15006;48.584;9.186;2023-06-14T14:48:14;31.40;23.00
27567;DHT22;15006;48.584;9.186;2023-06-14T14:50:40;31.30;22.80
27567;DHT22;15006;48.584;9.186;2023-06-14T14:53:06;31.10;22.50
27567;DHT22;15006;48.584;9.186;2023-06-14T14:55:32;30.70;22.30
27567;DHT22;15006;48.584;9.186;2023-06-14T14:58:02;30.30;22.50
27567;DHT22;15006;48.584;9.186;2023-06-14T15:00:29;29.90;23.20
27567;DHT22;15006;48.584;9.186;2023-06-14T15:02:54;29.60;23.30
27567;DHT22;15006;48.584;9.186;2023-06-14T15:05:21;29.40;23.50
27567;DHT22;15006;48.584;9.186;2023-06-14T15:07:47;29.20;23.70
27567;DHT22;15006;48.584;9.186;2023-06-14T15:10:13;29.00;23.80
27567;DHT22;15006;48.584;9.186;2023-06-14T15:12:40;28.80;24.00
27567;DHT22;15006;48.584;9.186;2023-06-14T15:15:06;28.70;24.30
27567;DHT22;15006;48.584;9.186;2023-06-14T15:17:33;28.50;24.40
27567;DHT22;15006;48.584;9.186;2023-06-14T15:19:59;28.50;25.20
27567;DHT22;15006;48.584;9.186;2023-06-14T15:22:24;28.50;25.40
27567;DHT22;15006;48.584;9.186;2023-06-14T15:24:50;28.60;25.10
27567;DHT22;15006;48.584;9.186;2023-06-14T15:27:19;28.70;25.10
27567;DHT22;15006;48.584;9.186;2023-06-14T15:29:45;28.90;25.40
27567;DHT22;15006;48.584;9.186;2023-06-14T15:32:12;29.20;25.40
27567;DHT22;15006;48.584;9.186;2023-06-14T15:34:38;29.40;25.20
27567;DHT22;15006;48.584;9.186;2023-06-14T15:37:08;29.70;24.70
27567;DHT22;15006;48.584;9.186;2023-06-14T15:39:35;30.00;24.60
27567;DHT22;15006;48.584;9.186;2023-06-14T15:42:02;30.10;24.30
27567;DHT22;15006;48.584;9.186;2023-06-14T15:44:29;30.30;24.40
27567;DHT22;15006;48.584;9.186;2023-06-14T15:46:55;30.40;23.70
27567;DHT22;15006;48.584;9.186;2023-06-14T15:49:21;30.40;24.40
27567;DHT22;15006;48.584;9.186;2023-06-14T15:51:47;30.50;23.60
27567;DHT22;15006;48.584;9.186;2023-06-14T15:54:13;30.50;23.50
27567;DHT22;15006;48.584;9.186;2023-06-14T15:56:39;30.50;23.80
27567;DHT22;15006;48.584;9.186;2023-06-14T15:59:05;30.40;23.40
27567;DHT22;15006;48.584;9.186;2023-06-14T16:01:32;30.20;23.50